createdAt,value
2023-03-17T00:03:41.835Z,2.31
2023-03-17T00:08:44.367Z,2.21
2023-03-17T00:13:45.991Z,2.33
2023-03-17T00:18:50.051Z,2.50
2023-03-17T00:23:51.780Z,2.45
2023-03-17T00:28:54.257Z,2.15
2023-03-17T00:33:57.450Z,2.10
2023-03-17T00:38:59.698Z,1.98
2023-03-17T00:44:01.301Z,2.20
2023-03-17T00:49:14.177Z,2.19
2023-03-17T00:54:16.515Z,2.19
2023-03-17T00:59:23.917Z,2.06
2023-03-17T01:04:26.993Z,2.18
2023-03-17T01:09:29.147Z,2.21
2023-03-17T01:14:30.630Z,2.20
2023-03-17T01:19:33.519Z,2.22
2023-03-17T01:24:35.154Z,2.15
2023-03-17T01:29:36.720Z,2.07
2023-03-17T01:34:39.540Z,1.96
2023-03-17T01:39:41.086Z,1.67
2023-03-17T01:44:57.394Z,1.70
2023-03-17T01:50:06.023Z,1.42
2023-03-17T01:55:12.061Z,1.50
2023-03-17T02:00:16.601Z,1.43
2023-03-17T02:05:22.272Z,1.52
2023-03-17T02:10:25.815Z,1.47
2023-03-17T02:15:37.334Z,1.62
2023-03-17T02:21:23.285Z,1.73
2023-03-17T02:26:28.636Z,1.50
2023-03-17T02:31:30.314Z,1.14
2023-03-17T02:36:31.885Z,1.29
2023-03-17T02:41:35.531Z,1.30
2023-03-17T02:46:37.126Z,1.21
2023-03-17T02:51:38.725Z,1.46
2023-03-17T02:56:41.647Z,1.13
2023-03-17T03:01:43.341Z,0.95
2023-03-17T03:06:45.367Z,1.02
2023-03-17T03:11:48.394Z,1.29
2023-03-17T03:16:49.958Z,1.39
2023-03-17T03:21:51.528Z,1.35
2023-03-17T03:26:54.454Z,1.26
2023-03-17T03:31:55.981Z,1.28
2023-03-17T03:36:57.534Z,1.47
2023-03-17T03:42:00.390Z,1.31
2023-03-17T03:47:02.035Z,1.79
2023-03-17T03:52:03.957Z,2.00
2023-03-17T03:57:06.768Z,2.30
2023-03-17T04:02:09.632Z,1.77
2023-03-17T04:07:11.496Z,1.73
2023-03-17T04:12:14.509Z,2.15
2023-03-17T04:17:15.968Z,2.47
2023-03-17T04:22:17.650Z,2.36
2023-03-17T04:27:20.686Z,2.60
2023-03-17T04:32:22.231Z,2.16
2023-03-17T04:37:23.994Z,1.96
2023-03-17T04:42:26.926Z,2.48
2023-03-17T04:47:28.477Z,2.85
2023-03-17T04:52:30.208Z,2.89
2023-03-17T04:57:33.040Z,2.77
2023-03-17T05:02:34.943Z,2.75
2023-03-17T05:07:36.615Z,2.60
2023-03-17T05:12:39.412Z,2.51
2023-03-17T05:17:41.053Z,2.25
2023-03-17T05:22:42.792Z,2.37
2023-03-17T05:27:45.621Z,2.17
2023-03-17T05:32:47.225Z,2.43
2023-03-17T05:37:48.807Z,2.85
2023-03-17T05:42:52.105Z,2.88
2023-03-17T05:47:53.761Z,3.32
2023-03-17T05:52:55.260Z,3.21
2023-03-17T05:57:58.177Z,3.30
2023-03-17T06:02:59.731Z,3.21
2023-03-17T06:08:01.685Z,2.97
2023-03-17T06:13:04.639Z,3.38
2023-03-17T06:18:06.185Z,3.69
2023-03-17T06:23:07.769Z,3.78
2023-03-17T06:28:10.650Z,4.28
2023-03-17T06:33:12.546Z,4.86
2023-03-17T06:38:14.129Z,5.17
2023-03-17T06:43:17.306Z,5.44
2023-03-17T06:48:19.048Z,5.56
2023-03-17T06:53:20.974Z,5.72
2023-03-17T06:58:24.089Z,5.52
2023-03-17T07:03:26.805Z,5.59
2023-03-17T07:08:28.330Z,6.09
2023-03-17T07:13:31.181Z,6.14
2023-03-17T07:18:32.783Z,6.45
2023-03-17T07:23:34.371Z,6.64
2023-03-17T07:28:37.284Z,7.05
2023-03-17T07:33:38.847Z,6.81
2023-03-17T07:38:40.511Z,7.00
2023-03-17T07:43:43.304Z,7.67
2023-03-17T07:48:44.893Z,7.95
2023-03-17T07:53:46.781Z,7.62
2023-03-17T07:58:49.706Z,7.86
2023-03-17T08:03:51.366Z,8.34
2023-03-17T08:08:53.183Z,8.51
2023-03-17T08:13:56.173Z,8.59
2023-03-17T08:18:58.038Z,8.93
2023-03-17T08:23:59.742Z,8.87
2023-03-17T08:29:02.788Z,8.32
2023-03-17T08:34:04.465Z,9.39
2023-03-17T08:39:06.021Z,9.36
2023-03-17T08:44:09.388Z,9.86
2023-03-17T08:49:11.518Z,9.98
2023-03-17T08:54:13.170Z,9.82
2023-03-17T08:59:17.010Z,9.43
2023-03-17T09:04:18.726Z,9.15
2023-03-17T09:09:20.317Z,9.62
2023-03-17T09:14:23.186Z,9.60
2023-03-17T09:19:24.995Z,9.75
2023-03-17T09:24:26.469Z,9.63
2023-03-17T09:29:29.303Z,10.01
2023-03-17T09:34:30.970Z,10.08
2023-03-17T09:39:32.694Z,10.17
2023-03-17T09:44:45.899Z,9.67
2023-03-17T09:49:48.982Z,9.71
2023-03-17T09:54:50.617Z,10.47
2023-03-17T09:59:59.904Z,10.40
2023-03-17T10:05:10.966Z,10.27
2023-03-17T10:10:15.443Z,10.40
2023-03-17T10:15:25.240Z,10.21
2023-03-17T10:20:28.696Z,10.34
2023-03-17T10:25:32.561Z,10.56
2023-03-17T10:30:35.741Z,10.53
2023-03-17T10:35:38.434Z,10.41
2023-03-17T10:40:40.040Z,10.25
2023-03-17T10:45:54.921Z,10.79
2023-03-17T10:50:58.006Z,11.03
2023-03-17T10:56:07.070Z,11.15
2023-03-17T11:01:17.459Z,11.77
2023-03-17T11:06:26.414Z,11.77
2023-03-17T11:11:29.744Z,12.12
2023-03-17T11:16:36.952Z,11.70
2023-03-17T11:21:47.880Z,12.05
2023-03-17T11:26:57.791Z,12.19
2023-03-17T11:32:13.225Z,12.59
2023-03-17T11:37:29.680Z,12.29
2023-03-17T11:42:43.056Z,12.23
2023-03-17T11:48:00.012Z,12.61
2023-03-17T11:53:20.573Z,12.73
2023-03-17T11:58:28.865Z,13.31
2023-03-17T12:03:39.680Z,13.60
2023-03-17T12:08:45.305Z,13.15
2023-03-17T12:13:51.437Z,13.44
2023-03-17T12:19:01.679Z,12.86
2023-03-17T12:24:11.057Z,13.19
2023-03-17T12:29:16.734Z,13.31
2023-03-17T12:34:26.737Z,13.42
2023-03-17T12:39:32.158Z,13.85
2023-03-17T12:44:45.582Z,13.79
2023-03-17T12:50:19.046Z,13.41
2023-03-17T12:55:24.638Z,14.04
2023-03-17T13:00:28.855Z,13.87
2023-03-17T13:05:33.155Z,13.74
2023-03-17T13:10:41.359Z,13.83
2023-03-17T13:15:59.984Z,14.11
2023-03-17T13:21:15.122Z,14.21
2023-03-17T13:26:19.356Z,14.45
2023-03-17T13:31:36.199Z,14.23
2023-03-17T13:36:45.545Z,14.17
2023-03-17T13:42:18.070Z,14.87
2023-03-17T13:47:32.337Z,14.47
2023-03-17T13:52:40.894Z,14.74
2023-03-17T13:57:42.592Z,14.60
2023-03-17T14:02:45.208Z,14.58
2023-03-17T14:07:54.288Z,14.83
2023-03-17T14:13:02.940Z,14.69
2023-03-17T14:18:09.260Z,15.25
2023-03-17T14:23:12.132Z,15.17
2023-03-17T14:28:17.274Z,15.42
2023-03-17T14:33:23.707Z,15.58
2023-03-17T14:38:32.004Z,15.55
2023-03-17T14:43:35.046Z,15.54
2023-03-17T14:48:39.918Z,15.54
2023-03-17T14:53:44.004Z,15.53
2023-03-17T14:58:46.392Z,15.53
2023-03-17T15:03:56.411Z,15.43
2023-03-17T15:09:01.755Z,15.51
2023-03-17T15:14:05.957Z,15.66
2023-03-17T15:19:16.994Z,15.66
2023-03-17T15:24:40.550Z,15.79
2023-03-17T15:29:42.269Z,15.84
2023-03-17T15:34:43.757Z,15.85
2023-03-17T15:39:47.553Z,15.82
2023-03-17T15:44:49.075Z,15.80
2023-03-17T15:49:50.798Z,15.65
2023-03-17T15:54:54.950Z,15.67
2023-03-17T15:59:56.462Z,15.44
2023-03-17T16:04:58.878Z,15.39
2023-03-17T16:10:01.824Z,15.34
2023-03-17T16:15:07.745Z,15.21
2023-03-17T16:20:26.471Z,15.14
2023-03-17T16:25:31.847Z,15.09
2023-03-17T16:30:34.619Z,15.15
2023-03-17T16:35:36.410Z,15.13
2023-03-17T16:40:40.226Z,15.02
2023-03-17T16:45:41.730Z,14.91
2023-03-17T16:50:43.917Z,14.81
2023-03-17T16:55:47.058Z,14.76
2023-03-17T17:00:50.858Z,14.68
2023-03-17T17:05:52.382Z,14.22
2023-03-17T17:10:56.277Z,13.99
2023-03-17T17:15:57.881Z,13.85
2023-03-17T17:20:59.397Z,13.90
2023-03-17T17:26:02.377Z,13.73
2023-03-17T17:31:03.931Z,13.56
2023-03-17T17:36:07.906Z,13.59
2023-03-17T17:41:11.769Z,13.19
2023-03-17T17:46:16.690Z,13.19
2023-03-17T17:51:18.274Z,13.06
2023-03-17T17:56:21.266Z,13.13
2023-03-17T18:01:23.421Z,12.99
2023-03-17T18:06:25.054Z,13.00
2023-03-17T18:11:28.001Z,12.73
2023-03-17T18:16:29.516Z,12.78
2023-03-17T18:21:31.256Z,12.64
2023-03-17T18:26:34.465Z,13.06
2023-03-17T18:31:40.121Z,12.74
2023-03-17T18:36:41.831Z,12.91
2023-03-17T18:41:45.470Z,12.91
2023-03-17T18:46:46.999Z,12.95
2023-03-17T18:51:48.540Z,13.01
2023-03-17T18:56:51.360Z,12.54
2023-03-17T19:01:52.886Z,12.70
2023-03-17T19:06:54.388Z,12.64
2023-03-17T19:11:57.320Z,12.76
2023-03-17T19:16:58.983Z,12.85
2023-03-17T19:22:00.835Z,12.74
2023-03-17T19:27:04.088Z,12.68
2023-03-17T19:32:05.593Z,12.56
2023-03-17T19:37:07.275Z,12.35
2023-03-17T19:42:10.165Z,12.32
2023-03-17T19:47:11.694Z,12.24
2023-03-17T19:52:13.261Z,12.17
2023-03-17T19:57:17.079Z,12.14
2023-03-17T20:02:18.658Z,12.06
2023-03-17T20:07:20.384Z,12.18
2023-03-17T20:12:23.291Z,11.99
2023-03-17T20:17:24.842Z,12.16
2023-03-17T20:22:26.619Z,12.14
2023-03-17T20:27:29.503Z,12.19
2023-03-17T20:32:31.101Z,12.12
2023-03-17T20:37:32.714Z,12.13
2023-03-17T20:42:35.826Z,11.74
2023-03-17T20:47:37.750Z,11.64
2023-03-17T20:52:39.659Z,11.37
2023-03-17T20:57:43.880Z,11.53
2023-03-17T21:02:45.859Z,11.57
2023-03-17T21:07:47.589Z,11.47
2023-03-17T21:12:53.012Z,11.35
2023-03-17T21:17:54.904Z,11.35
2023-03-17T21:22:56.574Z,11.30
2023-03-17T21:27:59.599Z,11.33
2023-03-17T21:33:01.336Z,11.31
2023-03-17T21:38:03.822Z,11.30
2023-03-17T21:43:06.717Z,11.31
2023-03-17T21:48:08.217Z,11.30
2023-03-17T21:53:12.612Z,11.23
2023-03-17T21:58:15.501Z,11.24
2023-03-17T22:03:17.899Z,11.11
2023-03-17T22:08:19.559Z,10.97
2023-03-17T22:13:22.490Z,10.86
2023-03-17T22:18:23.998Z,10.67
2023-03-17T22:23:26.624Z,10.66
2023-03-17T22:28:29.638Z,10.59
2023-03-17T22:33:31.234Z,10.52
2023-03-17T22:38:32.785Z,10.51
2023-03-17T22:43:36.248Z,10.35
2023-03-17T22:48:37.764Z,10.56
2023-03-17T22:53:40.258Z,10.61
2023-03-17T22:58:43.836Z,10.48
2023-03-17T23:03:45.766Z,10.51
2023-03-17T23:08:47.821Z,10.47
2023-03-17T23:13:51.814Z,10.42
2023-03-17T23:18:53.385Z,10.45
2023-03-17T23:23:55.572Z,10.52
2023-03-17T23:28:58.420Z,10.60
2023-03-17T23:34:00.351Z,10.47
2023-03-17T23:39:02.185Z,10.51
2023-03-17T23:44:05.171Z,10.30
2023-03-17T23:49:07.017Z,10.38
2023-03-17T23:54:08.510Z,10.48
2023-03-17T23:59:11.416Z,10.35
